Time;durP1;ratioP1;P1;durP2;ratioP2;P2;SDS_P1;SDS_P2;PMS_P1;PMS_P2;Temp;Humidity;BMP_temperature;BMP_pressure;BME280_temperature;BME280_humidity;BME280_pressure;Samples;Min_cycle;Max_cycle;Signal;HPM_P1;HPM_P2
2022/11/30 00:00:36;;;;;;;43.37;20.33;;;9.00;99.00;;;;;;5019622;28;20433;-69
2022/11/30 00:03:03;;;;;;;37.07;19.20;;;9.00;99.00;;;;;;5009953;28;20445;-70
2022/11/30 00:05:28;;;;;;;43.80;22.20;;;9.00;97.90;;;;;;5024543;22;20507;-70
2022/11/30 00:07:54;;;;;;;55.07;21.83;;;9.00;99.10;;;;;;4992862;28;20508;-69
2022/11/30 00:10:21;;;;;;;45.73;22.80;;;8.90;98.30;;;;;;5005822;28;20252;-71
2022/11/30 00:12:47;;;;;;;40.97;21.77;;;8.80;97.60;;;;;;5009833;28;20175;-68
2022/11/30 00:15:15;;;;;;;41.27;21.70;;;8.80;99.00;;;;;;5006111;28;20526;-70
2022/11/30 00:17:44;;;;;;;40.43;22.23;;;8.70;97.90;;;;;;5021998;28;20189;-70
2022/11/30 00:20:12;;;;;;;46.43;23.40;;;8.70;98.90;;;;;;5029732;28;20441;-68
2022/11/30 00:22:37;;;;;;;46.73;22.57;;;8.60;98.90;;;;;;5031195;28;20397;-69
2022/11/30 00:25:03;;;;;;;48.07;23.73;;;8.60;99.90;;;;;;5025203;28;20502;-68
2022/11/30 00:27:30;;;;;;;49.33;22.33;;;8.70;99.90;;;;;;5027518;28;20645;-70
2022/11/30 00:29:56;;;;;;;56.00;24.77;;;8.70;99.90;;;;;;5023365;28;20449;-70
2022/11/30 00:32:22;;;;;;;45.13;23.00;;;8.70;99.90;;;;;;5010329;28;20439;-70
2022/11/30 00:34:47;;;;;;;50.33;23.23;;;8.70;99.90;;;;;;5014556;28;20186;-71
2022/11/30 00:37:13;;;;;;;41.50;21.80;;;8.70;99.90;;;;;;5019374;28;20182;-70
2022/11/30 00:39:39;;;;;;;51.43;24.57;;;8.80;99.90;;;;;;5033322;28;20549;-70
2022/11/30 00:42:04;;;;;;;50.27;22.97;;;8.80;99.90;;;;;;5027967;28;20488;-70
2022/11/30 00:44:30;;;;;;;53.90;22.67;;;8.70;97.80;;;;;;5020178;28;20209;-70
2022/11/30 00:46:55;;;;;;;39.70;21.47;;;8.60;99.90;;;;;;5007233;28;20220;-70
2022/11/30 00:49:21;;;;;;;48.23;22.00;;;8.70;99.90;;;;;;5029785;28;20664;-70
2022/11/30 00:51:46;;;;;;;42.40;21.73;;;8.80;99.90;;;;;;5030499;28;20166;-70
2022/11/30 00:54:12;;;;;;;50.50;22.90;;;8.70;99.90;;;;;;5028398;28;20213;-70
2022/11/30 00:56:37;;;;;;;43.43;23.30;;;8.70;99.90;;;;;;5031460;28;20200;-70
2022/11/30 00:59:03;;;;;;;45.13;21.43;;;8.70;99.90;;;;;;4998513;28;20299;-71
2022/11/30 01:01:30;;;;;;;51.37;23.10;;;8.70;98.90;;;;;;5023772;28;20178;-70
2022/11/30 01:03:56;;;;;;;44.50;20.93;;;8.50;97.70;;;;;;5027774;28;20624;-71
2022/11/30 01:06:21;;;;;;;44.63;22.13;;;8.50;99.90;;;;;;4999971;28;20512;-70
2022/11/30 01:08:47;;;;;;;47.90;23.37;;;8.50;98.80;;;;;;5020842;28;20563;-70
2022/11/30 01:11:25;;;;;;;36.03;20.30;;;8.40;99.90;;;;;;5016295;28;20198;-71
2022/11/30 01:13:52;;;;;;;45.33;21.43;;;8.50;99.90;;;;;;5025107;28;20178;-70
2022/11/30 01:16:21;;;;;;;43.17;21.57;;;8.50;99.90;;;;;;5027064;28;20412;-70
2022/11/30 01:18:47;;;;;;;42.50;21.37;;;8.50;99.90;;;;;;5023770;28;21066;-70
2022/11/30 01:21:16;;;;;;;39.93;21.00;;;8.50;99.90;;;;;;5021706;28;20429;-71
2022/11/30 01:23:42;;;;;;;50.23;22.40;;;8.60;99.90;;;;;;5016128;28;20448;-70
2022/11/30 01:26:07;;;;;;;43.87;21.30;;;8.50;99.90;;;;;;5008565;28;20511;-71
2022/11/30 01:28:34;;;;;;;49.27;22.30;;;8.50;99.90;;;;;;5012460;28;20574;-70
2022/11/30 01:31:01;;;;;;;47.10;23.80;;;8.50;99.90;;;;;;5019162;28;20209;-69
2022/11/30 01:33:27;;;;;;;46.73;23.90;;;8.50;99.90;;;;;;5025417;28;20845;-70
2022/11/30 01:36:14;;;;;;;50.60;23.73;;;8.50;99.90;;;;;;5021990;28;20460;-71
2022/11/30 01:38:43;;;;;;;50.47;22.40;;;8.50;99.90;;;;;;5017871;28;20320;-71
2022/11/30 01:41:11;;;;;;;59.97;24.10;;;8.60;99.90;;;;;;5028642;28;20511;-71
2022/11/30 01:43:41;;;;;;;53.43;23.17;;;8.50;99.90;;;;;;5025027;28;20437;-70
2022/11/30 01:46:27;;;;;;;54.33;24.70;;;8.50;99.90;;;;;;5030385;28;20800;-70
2022/11/30 01:49:03;;;;;;;62.63;25.27;;;8.50;99.90;;;;;;5029429;28;20518;-70
2022/11/30 01:51:37;;;;;;;50.93;22.03;;;8.40;99.90;;;;;;5029278;28;20420;-71
2022/11/30 01:54:06;;;;;;;47.43;21.87;;;8.50;99.90;;;;;;5023014;28;20433;-71
2022/11/30 01:56:32;;;;;;;51.90;22.60;;;8.50;99.90;;;;;;5007823;28;20443;-71
2022/11/30 01:58:57;;;;;;;51.43;22.60;;;8.60;99.90;;;;;;5003862;28;20512;-71
2022/11/30 02:01:24;;;;;;;38.90;20.20;;;8.60;99.90;;;;;;5028148;28;20264;-71
2022/11/30 02:04:05;;;;;;;51.90;22.97;;;6.30;99.90;;;;;;5020693;28;20335;-71
2022/11/30 02:06:30;;;;;;;56.83;22.83;;;8.60;99.90;;;;;;5017392;28;20421;-71
2022/11/30 02:08:57;;;;;;;49.63;21.40;;;8.60;99.90;;;;;;5002993;28;20482;-71
2022/11/30 02:11:25;;;;;;;49.00;22.27;;;8.50;99.90;;;;;;5020717;28;20251;-70
2022/11/30 02:14:18;;;;;;;43.90;20.80;;;8.60;99.90;;;;;;5024755;28;20780;-71
2022/11/30 02:17:21;;;;;;;54.60;20.87;;;8.50;99.90;;;;;;5021611;28;20455;-71
2022/11/30 02:20:03;;;;;;;60.83;21.83;;;8.60;99.90;;;;;;5030021;28;20499;-71
2022/11/30 02:22:47;;;;;;;46.37;20.73;;;8.60;99.90;;;;;;5027671;28;20435;-71
2022/11/30 02:25:18;;;;;;;51.00;22.27;;;8.50;99.90;;;;;;5021759;28;20463;-71
2022/11/30 02:27:55;;;;;;;52.73;20.50;;;8.50;99.90;;;;;;5029386;28;20424;-71
2022/11/30 02:30:22;;;;;;;45.90;21.63;;;8.50;99.90;;;;;;5025816;28;20495;-71
2022/11/30 02:33:03;;;;;;;56.07;23.60;;;8.40;99.90;;;;;;5026122;28;20424;-70
2022/11/30 02:35:33;;;;;;;68.50;24.10;;;8.40;99.90;;;;;;5026483;28;20468;-71
2022/11/30 02:38:01;;;;;;;55.00;23.10;;;8.50;99.90;;;;;;5023090;28;20935;-70
2022/11/30 02:40:26;;;;;;;54.33;21.50;;;8.50;99.90;;;;;;5018030;28;20467;-71
2022/11/30 02:42:54;;;;;;;46.90;22.20;;;8.50;99.90;;;;;;5015238;28;20441;-70
2022/11/30 02:45:28;;;;;;;49.20;21.40;;;8.50;99.90;;;;;;5017223;28;20205;-71
2022/11/30 02:48:06;;;;;;;46.57;21.47;;;8.60;99.90;;;;;;5025857;28;20535;-71
2022/11/30 02:50:41;;;;;;;49.93;22.43;;;8.60;99.90;;;;;;5025831;28;20483;-70
2022/11/30 02:53:08;;;;;;;60.80;23.40;;;8.60;99.90;;;;;;5013892;28;20421;-71
2022/11/30 02:55:34;;;;;;;60.20;22.90;;;8.50;99.90;;;;;;5027319;28;20455;-71
2022/11/30 02:57:59;;;;;;;57.87;22.87;;;8.50;99.90;;;;;;5003128;28;20428;-70
2022/11/30 03:00:25;;;;;;;52.30;20.33;;;8.50;99.90;;;;;;5007506;28;20266;-70
2022/11/30 03:02:50;;;;;;;51.23;21.80;;;8.50;99.90;;;;;;5025668;28;20268;-71
2022/11/30 03:05:16;;;;;;;53.87;22.60;;;8.50;99.90;;;;;;5026775;28;20205;-70
2022/11/30 03:07:41;;;;;;;63.10;23.30;;;8.50;99.90;;;;;;5017622;28;20774;-70
2022/11/30 03:10:08;;;;;;;47.03;20.73;;;8.50;99.90;;;;;;5015957;28;20625;-70
2022/11/30 03:12:33;;;;;;;55.30;21.70;;;8.40;99.90;;;;;;5022485;28;20208;-70
2022/11/30 03:14:59;;;;;;;54.10;20.90;;;8.40;99.90;;;;;;5028794;28;20811;-71
2022/11/30 03:17:25;;;;;;;48.83;20.70;;;8.50;99.90;;;;;;5024566;28;20259;-70
2022/11/30 03:19:50;;;;;;;46.90;21.27;;;8.50;99.90;;;;;;5010359;28;20177;-70
2022/11/30 03:22:16;;;;;;;52.87;21.70;;;8.60;99.90;;;;;;5022623;28;20247;-70
2022/11/30 03:24:41;;;;;;;48.23;21.30;;;8.50;99.90;;;;;;5027160;28;20293;-70
2022/11/30 03:27:07;;;;;;;46.60;19.77;;;8.60;99.90;;;;;;5028906;28;20272;-70
2022/11/30 03:29:32;;;;;;;47.73;20.13;;;8.50;99.90;;;;;;5028247;28;20205;-71
2022/11/30 03:31:58;;;;;;;53.70;21.13;;;8.50;99.90;;;;;;5010766;28;20648;-73
2022/11/30 03:34:26;;;;;;;49.60;20.43;;;8.50;99.90;;;;;;5026430;28;20276;-73
2022/11/30 03:36:52;;;;;;;45.40;20.07;;;8.50;99.90;;;;;;5020804;28;20173;-73
2022/11/30 03:39:17;;;;;;;45.27;20.63;;;8.50;99.90;;;;;;5021097;28;20499;-72
2022/11/30 03:41:43;;;;;;;44.17;20.27;;;8.50;99.90;;;;;;5021897;28;20471;-72
2022/11/30 03:44:09;;;;;;;47.63;20.77;;;8.60;99.90;;;;;;5007458;28;20291;-73
2022/11/30 03:46:34;;;;;;;49.97;19.60;;;8.60;99.90;;;;;;5028434;28;20166;-73
2022/11/30 03:49:00;;;;;;;57.33;21.53;;;8.60;99.90;;;;;;5007570;28;20939;-73
2022/11/30 03:51:25;;;;;;;50.70;21.13;;;8.50;99.90;;;;;;5014795;28;20293;-73
2022/11/30 03:53:51;;;;;;;44.27;20.27;;;8.40;99.90;;;;;;5022470;28;20174;-73
2022/11/30 03:56:16;;;;;;;57.97;21.27;;;8.40;99.90;;;;;;5005353;28;20170;-72
2022/11/30 03:58:42;;;;;;;47.07;21.07;;;8.40;99.90;;;;;;5023595;28;20419;-73
2022/11/30 04:01:10;;;;;;;43.57;19.33;;;8.40;99.90;;;;;;5025601;28;20592;-73
2022/11/30 04:03:36;;;;;;;50.90;20.60;;;8.40;99.90;;;;;;5025474;28;20323;-73
2022/11/30 04:06:03;;;;;;;56.17;21.17;;;8.50;99.90;;;;;;5021095;28;20459;-73
2022/11/30 04:08:29;;;;;;;49.30;21.10;;;8.40;99.90;;;;;;5021558;28;20527;-73
2022/11/30 04:10:57;;;;;;;58.17;21.60;;;8.40;99.90;;;;;;5006091;28;20488;-71
2022/11/30 04:13:23;;;;;;;59.00;21.40;;;8.40;99.90;;;;;;5024249;28;20510;-73
2022/11/30 04:15:50;;;;;;;44.67;20.73;;;8.50;99.90;;;;;;5004436;28;20445;-73
2022/11/30 04:18:19;;;;;;;52.03;21.37;;;8.50;99.90;;;;;;5030182;28;20946;-73
2022/11/30 04:20:45;;;;;;;45.50;20.40;;;8.50;99.90;;;;;;5029615;28;20417;-73
2022/11/30 04:23:11;;;;;;;44.70;20.33;;;8.60;99.90;;;;;;5026990;28;20483;-72
2022/11/30 04:25:38;;;;;;;54.83;21.27;;;8.60;99.90;;;;;;5011345;28;20460;-73
2022/11/30 04:28:04;;;;;;;46.33;21.20;;;8.60;99.90;;;;;;5028887;28;20471;-73
2022/11/30 04:30:31;;;;;;;51.87;19.97;;;8.60;99.90;;;;;;5029723;28;20455;-72
2022/11/30 04:32:57;;;;;;;52.07;21.03;;;8.50;99.90;;;;;;5030023;28;20170;-73
2022/11/30 04:35:22;;;;;;;46.50;20.63;;;8.50;99.90;;;;;;5028885;28;20447;-73
2022/11/30 04:37:48;;;;;;;55.50;21.67;;;8.50;99.90;;;;;;5032151;28;20416;-73
2022/11/30 04:40:13;;;;;;;47.00;19.97;;;8.50;99.90;;;;;;5027448;28;20269;-73
2022/11/30 04:42:39;;;;;;;45.53;19.90;;;8.50;99.90;;;;;;5029722;28;20477;-72
2022/11/30 04:45:05;;;;;;;42.43;19.00;;;8.50;99.90;;;;;;5027009;28;20201;-71
2022/11/30 04:47:30;;;;;;;48.03;21.07;;;8.50;99.90;;;;;;5030298;28;20255;-73
2022/11/30 04:49:56;;;;;;;49.03;20.90;;;8.40;99.90;;;;;;5030200;28;20484;-73
2022/11/30 04:52:21;;;;;;;49.97;21.53;;;8.30;99.90;;;;;;5022823;28;20252;-72
2022/11/30 04:54:47;;;;;;;48.87;20.70;;;8.30;99.90;;;;;;5020704;28;20185;-70
2022/11/30 04:57:12;;;;;;;45.60;19.07;;;8.30;99.90;;;;;;5026675;28;20170;-73
2022/11/30 04:59:38;;;;;;;42.70;19.83;;;8.40;99.90;;;;;;5013825;28;20184;-72
2022/11/30 05:02:03;;;;;;;48.10;19.90;;;8.50;99.90;;;;;;5011201;28;20173;-72
2022/11/30 05:04:29;;;;;;;41.00;18.93;;;8.50;99.90;;;;;;5005494;28;20592;-72
2022/11/30 05:06:54;;;;;;;34.80;16.63;;;8.50;99.90;;;;;;5025173;28;20608;-73
2022/11/30 05:09:20;;;;;;;30.83;16.50;;;8.40;99.90;;;;;;5029583;28;20572;-72
2022/11/30 05:11:47;;;;;;;32.80;17.70;;;8.40;99.90;;;;;;5024467;28;20177;-73
2022/11/30 05:14:13;;;;;;;31.00;17.33;;;8.30;99.90;;;;;;5026290;28;20194;-73
2022/11/30 05:16:38;;;;;;;29.87;15.70;;;8.30;99.90;;;;;;5012790;28;20455;-73
2022/11/30 05:19:04;;;;;;;34.67;17.10;;;8.40;99.90;;;;;;5001729;28;20174;-73
2022/11/30 05:21:29;;;;;;;30.77;16.00;;;8.40;99.90;;;;;;5006716;28;20547;-72
2022/11/30 05:23:55;;;;;;;32.27;16.50;;;8.40;99.90;;;;;;5011152;28;20597;-73
2022/11/30 05:26:20;;;;;;;33.50;14.70;;;8.40;99.90;;;;;;5026424;28;20182;-73
2022/11/30 05:28:46;;;;;;;29.43;15.07;;;8.30;99.90;;;;;;5017117;28;20209;-73
2022/11/30 05:31:11;;;;;;;28.07;15.30;;;8.30;99.90;;;;;;5026071;28;20683;-73
2022/11/30 05:33:37;;;;;;;30.90;16.57;;;8.30;99.90;;;;;;5021203;28;20265;-71
2022/11/30 05:36:02;;;;;;;28.43;15.50;;;8.30;99.90;;;;;;5020728;28;20252;-73
2022/11/30 05:38:28;;;;;;;32.07;16.90;;;8.40;99.90;;;;;;5015579;28;20206;-71
2022/11/30 05:40:59;;;;;;;31.30;16.03;;;8.30;99.90;;;;;;5025760;28;20189;-70
2022/11/30 05:43:25;;;;;;;34.40;17.07;;;8.40;99.90;;;;;;5017596;28;20181;-72
2022/11/30 05:45:50;;;;;;;33.03;16.37;;;8.40;99.90;;;;;;5004500;28;20540;-73
2022/11/30 05:48:16;;;;;;;35.37;15.63;;;8.30;99.90;;;;;;5019965;28;20544;-71
2022/11/30 05:50:41;;;;;;;30.00;15.57;;;8.30;99.90;;;;;;5007451;28;20197;-71
2022/11/30 05:53:07;;;;;;;37.37;16.23;;;8.40;99.90;;;;;;5029303;28;20243;-73
2022/11/30 05:55:32;;;;;;;32.00;15.83;;;7.10;99.90;;;;;;5028478;28;20581;-73
2022/11/30 05:57:58;;;;;;;35.77;16.23;;;8.30;99.90;;;;;;5019631;28;20217;-73
2022/11/30 06:00:23;;;;;;;31.77;16.23;;;8.30;99.90;;;;;;5008274;28;20301;-74
2022/11/30 06:02:55;;;;;;;32.73;15.80;;;8.30;99.90;;;;;;5027157;28;20244;-73
2022/11/30 06:05:20;;;;;;;30.80;16.97;;;8.40;99.90;;;;;;5032366;22;20222;-71
2022/11/30 06:07:46;;;;;;;29.70;15.17;;;8.40;99.90;;;;;;5008866;28;20468;-71
2022/11/30 06:10:12;;;;;;;37.57;16.87;;;8.50;99.90;;;;;;5005602;28;20657;-69
2022/11/30 06:12:37;;;;;;;33.30;17.70;;;8.50;99.90;;;;;;5009436;28;20182;-73
2022/11/30 06:15:03;;;;;;;32.20;17.50;;;8.50;99.90;;;;;;5008643;28;20562;-71
2022/11/30 06:17:29;;;;;;;36.93;16.87;;;8.50;99.90;;;;;;5010983;28;20186;-71
2022/11/30 06:19:54;;;;;;;37.80;15.90;;;8.50;99.90;;;;;;5008149;28;20433;-70
2022/11/30 06:22:20;;;;;;;32.40;17.50;;;8.40;99.90;;;;;;5009050;28;20598;-70
2022/11/30 06:24:45;;;;;;;36.27;16.73;;;8.30;99.90;;;;;;5008259;28;20712;-73
2022/11/30 06:27:11;;;;;;;42.33;17.80;;;8.20;99.90;;;;;;5009740;28;20186;-72
2022/11/30 06:29:36;;;;;;;41.40;19.60;;;8.20;99.90;;;;;;5009151;28;20248;-71
2022/11/30 06:32:02;;;;;;;49.53;19.33;;;8.30;99.90;;;;;;5011690;28;20333;-73
2022/11/30 06:34:30;;;;;;;42.80;19.20;;;8.30;99.90;;;;;;5008192;28;20183;-70
2022/11/30 06:36:56;;;;;;;45.50;20.80;;;8.30;99.90;;;;;;5009339;28;20544;-70
2022/11/30 06:39:22;;;;;;;32.47;17.40;;;8.30;99.90;;;;;;5008650;28;20421;-71
2022/11/30 06:41:47;;;;;;;32.40;17.37;;;8.30;99.90;;;;;;5007300;28;20572;-70
2022/11/30 06:44:13;;;;;;;42.57;19.67;;;8.30;99.90;;;;;;5007674;28;20467;-71
2022/11/30 06:46:38;;;;;;;48.00;21.00;;;8.30;99.90;;;;;;5006692;28;20174;-70
2022/11/30 06:49:05;;;;;;;37.80;17.87;;;8.30;99.90;;;;;;5017347;28;20181;-71
2022/11/30 06:51:30;;;;;;;35.63;17.20;;;8.30;99.90;;;;;;5014233;28;20194;-71
2022/11/30 06:53:56;;;;;;;37.30;18.80;;;8.40;99.90;;;;;;5008177;28;20421;-71
2022/11/30 06:56:21;;;;;;;35.90;17.10;;;8.30;99.90;;;;;;5008811;28;20293;-73
2022/11/30 06:58:47;;;;;;;32.80;17.33;;;8.30;99.90;;;;;;5009743;28;20182;-70
2022/11/30 07:01:14;;;;;;;36.87;17.37;;;8.30;99.90;;;;;;5012378;28;20533;-70
2022/11/30 07:03:40;;;;;;;38.80;19.10;;;8.30;99.90;;;;;;5009338;28;20166;-70
2022/11/30 15:12:24;;;;;;;30.37;16.17;;;8.00;84.00;;;;;;5115564;27;20550;-69
2022/11/30 15:15:02;;;;;;;30.87;16.37;;;8.10;90.00;;;;;;5097095;28;21033;-71
2022/11/30 15:17:28;;;;;;;30.90;15.63;;;8.20;94.40;;;;;;5100182;28;20439;-72
2022/11/30 15:19:53;;;;;;;33.23;16.70;;;8.40;93.70;;;;;;5106315;28;20433;-71
2022/11/30 15:22:22;;;;;;;27.00;14.37;;;8.60;92.70;;;;;;5099904;28;20660;-71
2022/11/30 15:24:48;;;;;;;27.07;15.00;;;8.70;91.40;;;;;;5097616;28;20714;-71
2022/11/30 15:27:20;;;;;;;28.77;15.33;;;8.90;79.40;;;;;;5105719;28;20428;-70
2022/11/30 15:29:57;;;;;;;30.73;16.47;;;9.00;71.00;;;;;;5107048;28;21094;-70
2022/11/30 15:32:23;;;;;;;24.90;15.33;;;9.00;60.30;;;;;;5107943;28;20424;-72
2022/11/30 15:34:51;;;;;;;28.25;15.57;;;9.20;58.40;;;;;;5106115;28;20706;-71
2022/11/30 15:37:18;;;;;;;26.53;14.90;;;9.20;46.70;;;;;;5106889;28;20259;-73
2022/11/30 15:39:54;;;;;;;27.27;15.20;;;9.20;50.40;;;;;;5099559;28;20876;-70
2022/11/30 15:42:26;;;;;;;32.03;15.00;;;9.20;45.90;;;;;;5098213;28;20458;-70
2022/11/30 15:44:52;;;;;;;25.13;13.70;;;9.20;58.00;;;;;;5104438;28;20869;-69
2022/11/30 15:47:33;;;;;;;25.73;14.07;;;9.30;47.60;;;;;;5099774;28;20523;-72
2022/11/30 15:49:59;;;;;;;27.10;15.60;;;9.30;45.90;;;;;;5104438;28;20918;-71
2022/11/30 15:52:27;;;;;;;25.57;14.30;;;9.30;39.60;;;;;;5105532;28;20419;-70
2022/11/30 15:55:03;;;;;;;30.80;15.07;;;9.30;38.30;;;;;;5105229;28;20251;-70
2022/11/30 15:57:57;;;;;;;22.23;13.10;;;9.30;38.30;;;;;;5104375;28;20426;-70
2022/11/30 16:00:23;;;;;;;27.43;16.40;;;9.30;38.30;;;;;;5098786;28;20448;-69
2022/11/30 16:02:48;;;;;;;29.80;15.93;;;9.30;38.30;;;;;;5100240;28;20815;-69
2022/11/30 16:05:14;;;;;;;25.97;14.90;;;9.20;38.20;;;;;;5103166;28;20483;-69
2022/11/30 16:07:48;;;;;;;26.67;14.67;;;9.10;38.30;;;;;;5103277;28;20217;-69
2022/11/30 16:10:19;;;;;;;26.63;14.70;;;9.10;38.20;;;;;;5099387;28;20218;-69
2022/11/30 16:12:45;;;;;;;24.40;14.23;;;9.00;38.20;;;;;;5104471;28;20541;-71
2022/11/30 16:15:23;;;;;;;28.43;14.83;;;9.30;38.30;;;;;;5105335;28;20476;-70
2022/11/30 16:17:50;;;;;;;26.03;16.27;;;9.10;38.20;;;;;;5105719;28;20439;-72
2022/11/30 16:20:16;;;;;;;27.10;15.40;;;9.00;38.00;;;;;;5095347;28;20429;-70
2022/11/30 16:22:44;;;;;;;31.00;18.07;;;9.00;38.10;;;;;;5097338;28;20433;-68
2022/11/30 16:25:19;;;;;;;35.00;17.80;;;9.10;38.10;;;;;;5091218;28;20188;-69
2022/11/30 16:27:46;;;;;;;28.70;16.80;;;9.20;38.20;;;;;;5092192;28;20402;-69
2022/11/30 16:30:18;;;;;;;30.40;17.30;;;9.20;40.90;;;;;;5089948;28;20498;-68
2022/11/30 16:32:44;;;;;;;32.77;19.27;;;9.20;38.10;;;;;;5091899;28;20431;-70
2022/11/30 16:35:26;;;;;;;32.00;18.00;;;9.20;40.80;;;;;;5091056;28;20487;-70
2022/11/30 16:37:52;;;;;;;32.00;18.33;;;9.10;38.10;;;;;;5087425;28;20421;-69
2022/11/30 16:40:18;;;;;;;34.65;18.42;;;9.10;38.20;;;;;;5086086;28;20483;-70
2022/11/30 16:42:44;;;;;;;27.97;16.40;;;9.20;38.30;;;;;;5088888;28;20187;-69
2022/11/30 16:45:17;;;;;;;27.63;16.10;;;9.10;32.10;;;;;;5087923;28;20893;-70
2022/11/30 16:47:43;;;;;;;31.50;17.70;;;9.00;38.00;;;;;;5086824;28;20180;-73
2022/11/30 16:50:13;;;;;;;28.30;16.30;;;9.00;36.00;;;;;;5088101;28;20461;-70
2022/11/30 16:52:39;;;;;;;28.37;15.67;;;9.00;37.80;;;;;;5083078;28;20866;-69
2022/11/30 16:55:19;;;;;;;26.97;16.33;;;9.00;33.70;;;;;;5088357;28;20505;-71
2022/11/30 16:57:45;;;;;;;25.70;15.00;;;9.00;38.00;;;;;;5089238;28;20425;-70
2022/11/30 17:00:14;;;;;;;24.13;13.27;;;9.00;31.30;;;;;;5092288;28;20829;-70
2022/11/30 17:03:08;;;;;;;22.73;13.43;;;9.00;30.20;;;;;;5084983;28;20433;-69
2022/11/30 17:05:35;;;;;;;24.97;14.20;;;9.00;26.90;;;;;;5077159;28;20446;-69
2022/11/30 17:08:01;;;;;;;27.03;15.13;;;9.00;29.20;;;;;;5084834;28;20425;-69
2022/11/30 17:10:27;;;;;;;25.43;13.73;;;9.00;37.80;;;;;;5090959;28;20540;-68
2022/11/30 17:12:52;;;;;;;23.83;14.10;;;9.00;28.90;;;;;;5083083;28;20885;-70
2022/11/30 17:15:21;;;;;;;23.63;14.87;;;8.90;28.60;;;;;;5086215;28;20192;-73
2022/11/30 17:17:47;;;;;;;24.13;14.40;;;8.90;29.00;;;;;;5092022;28;20221;-69
2022/11/30 17:20:14;;;;;;;21.17;13.90;;;8.90;37.90;;;;;;5089391;28;20438;-70
2022/11/30 17:22:42;;;;;;;21.13;13.73;;;8.90;27.80;;;;;;5090798;28;20172;-69
2022/11/30 17:25:13;;;;;;;22.40;13.30;;;8.90;24.00;;;;;;5086216;28;20458;-69
2022/11/30 17:27:38;;;;;;;22.73;14.00;;;8.90;33.50;;;;;;5083055;28;20524;-70
2022/11/30 17:30:05;;;;;;;22.83;14.57;;;9.00;30.20;;;;;;5089913;28;20857;-71
2022/11/30 17:32:30;;;;;;;24.57;14.50;;;9.00;27.30;;;;;;5091437;28;20172;-72
2022/11/30 17:34:55;;;;;;;26.10;13.93;;;9.10;28.50;;;;;;5085976;28;21010;-70
2022/11/30 17:37:22;;;;;;;23.47;14.30;;;9.10;32.80;;;;;;5103195;28;20179;-71
2022/11/30 17:39:47;;;;;;;25.50;15.00;;;9.10;30.40;;;;;;5097129;28;20176;-71
2022/11/30 17:42:13;;;;;;;24.10;15.47;;;9.10;26.00;;;;;;5089190;28;21104;-69
2022/11/30 17:44:38;;;;;;;22.43;14.33;;;9.00;23.90;;;;;;5091448;28;20713;-70
2022/11/30 17:47:04;;;;;;;22.13;14.07;;;9.00;24.60;;;;;;5085253;28;20180;-69
2022/11/30 17:49:29;;;;;;;23.07;14.20;;;9.00;25.70;;;;;;5091662;28;20172;-69
2022/11/30 17:51:55;;;;;;;23.10;13.67;;;9.00;24.30;;;;;;5079910;28;20844;-70
2022/11/30 17:54:20;;;;;;;25.80;14.07;;;9.00;21.00;;;;;;5079141;28;20183;-70
2022/11/30 17:56:46;;;;;;;22.43;13.40;;;9.00;21.70;;;;;;5086749;28;20172;-73
2022/11/30 17:59:12;;;;;;;20.70;12.50;;;8.90;22.10;;;;;;5085687;28;20738;-69
2022/11/30 18:01:37;;;;;;;20.80;12.03;;;8.90;24.30;;;;;;5092970;28;20669;-69
2022/11/30 18:04:03;;;;;;;21.23;13.20;;;8.90;25.50;;;;;;5087995;28;20180;-70
2022/11/30 18:06:29;;;;;;;20.07;11.90;;;8.80;25.80;;;;;;5089535;28;20200;-70
2022/11/30 18:08:56;;;;;;;22.73;13.33;;;8.80;22.90;;;;;;5082427;28;20203;-73
2022/11/30 18:11:24;;;;;;;20.70;14.03;;;8.80;25.10;;;;;;5083623;28;20515;-72
2022/11/30 18:13:52;;;;;;;21.07;12.70;;;9.10;39.90;;;;;;5104550;22;20503;-73
2022/11/30 18:16:24;;;;;;;20.97;12.30;;;9.20;41.20;;;;;;5047545;28;20426;-75
2022/11/30 18:18:49;;;;;;;19.13;12.33;;;9.70;47.90;;;;;;5047479;28;20424;-74
2022/11/30 18:21:18;;;;;;;24.30;13.67;;;9.80;8.80;;;;;;5035870;28;20451;-75
2022/11/30 18:23:44;;;;;;;22.13;14.60;;;9.70;10.00;;;;;;5056357;28;21125;-70
2022/11/30 18:26:13;;;;;;;21.50;13.87;;;9.50;7.80;;;;;;5059361;28;20267;-69
2022/11/30 18:28:38;;;;;;;19.63;13.37;;;9.30;10.40;;;;;;5061222;28;20936;-70
2022/11/30 18:31:05;;;;;;;20.23;12.17;;;9.10;5.70;;;;;;5066909;28;20497;-68
2022/11/30 18:33:31;;;;;;;17.60;12.10;;;9.00;7.70;;;;;;5067340;28;20222;-70
2022/11/30 18:35:58;;;;;;;19.00;12.10;;;8.80;4.80;;;;;;5060703;28;20439;-69
2022/11/30 18:38:24;;;;;;;19.43;11.93;;;8.70;7.90;;;;;;5058376;28;20454;-69
2022/11/30 18:40:49;;;;;;;19.97;11.37;;;8.60;6.40;;;;;;5055751;28;20441;-69
2022/11/30 18:43:15;;;;;;;17.13;11.40;;;8.50;9.10;;;;;;5056533;28;20463;-70
2022/11/30 18:45:40;;;;;;;23.20;13.13;;;8.60;10.80;;;;;;5061695;28;20249;-69
2022/11/30 18:48:06;;;;;;;20.57;11.57;;;8.60;6.90;;;;;;5067433;28;20178;-69
2022/11/30 18:50:32;;;;;;;19.23;11.77;;;8.50;7.10;;;;;;5058205;28;20200;-70
2022/11/30 18:52:57;;;;;;;18.20;12.00;;;8.50;7.90;;;;;;5066784;28;20200;-70
2022/11/30 18:55:24;;;;;;;17.30;11.60;;;8.50;10.10;;;;;;5068241;28;20244;-69
2022/11/30 18:57:50;;;;;;;19.57;11.73;;;8.50;8.60;;;;;;5069287;28;20472;-69
2022/11/30 19:00:16;;;;;;;19.90;11.47;;;8.40;7.80;;;;;;5066673;28;20434;-69
2022/11/30 19:02:42;;;;;;;17.60;11.40;;;8.40;1.60;;;;;;5066480;28;20588;-69
2022/11/30 19:05:08;;;;;;;17.00;10.80;;;8.40;3.40;;;;;;5057103;28;21000;-68
2022/11/30 19:07:40;;;;;;;18.17;11.00;;;8.40;4.70;;;;;;5059867;28;20459;-70
2022/11/30 19:10:07;;;;;;;18.07;11.33;;;8.30;2.20;;;;;;5061048;28;20173;-68
2022/11/30 19:12:35;;;;;;;20.10;11.93;;;8.30;1.00;;;;;;5061504;28;20496;-69
2022/11/30 19:15:03;;;;;;;20.10;12.30;;;8.30;3.00;;;;;;5057706;28;20439;-68
2022/11/30 19:17:32;;;;;;;20.93;11.63;;;8.30;1.00;;;;;;5066361;28;20426;-70
2022/11/30 19:19:59;;;;;;;18.90;11.07;;;8.20;1.00;;;;;;5062926;28;20431;-69
2022/11/30 19:22:28;;;;;;;19.47;11.20;;;8.20;1.00;;;;;;5054855;28;20415;-69
2022/11/30 19:24:54;;;;;;;18.70;11.57;;;8.30;2.60;;;;;;5066229;28;20917;-68
2022/11/30 19:27:19;;;;;;;17.47;10.80;;;8.20;1.00;;;;;;5064847;28;20465;-70
2022/11/30 19:29:45;;;;;;;19.30;12.13;;;8.00;1.30;;;;;;5067939;28;20173;-69
2022/11/30 19:32:10;;;;;;;16.10;10.73;;;8.20;1.60;;;;;;5066649;28;20527;-70
2022/11/30 19:34:36;;;;;;;13.90;9.67;;;8.00;1.00;;;;;;5082696;28;20513;-70
2022/11/30 19:37:01;;;;;;;20.17;11.40;;;8.00;1.00;;;;;;5058285;28;20175;-69
2022/11/30 19:39:27;;;;;;;17.87;11.03;;;8.00;1.00;;;;;;5055632;28;20248;-69
2022/11/30 19:41:52;;;;;;;15.40;9.70;;;7.90;1.00;;;;;;5066703;28;20177;-70
2022/11/30 19:44:18;;;;;;;17.37;10.97;;;7.80;1.00;;;;;;5061281;28;20595;-67
2022/11/30 19:46:43;;;;;;;20.80;11.87;;;7.80;1.00;;;;;;5066558;28;20176;-69
2022/11/30 19:49:09;;;;;;;17.80;9.80;;;7.90;1.00;;;;;;5064280;28;20251;-70
2022/11/30 19:51:34;;;;;;;20.97;13.00;;;7.80;1.00;;;;;;5066490;28;20246;-70
2022/11/30 19:54:00;;;;;;;21.70;11.87;;;7.80;1.00;;;;;;5064020;28;20693;-70
2022/11/30 19:56:27;;;;;;;31.10;15.90;;;7.80;1.00;;;;;;5058776;28;20256;-70
2022/11/30 19:58:54;;;;;;;22.07;12.10;;;7.80;1.00;;;;;;5067784;28;20181;-69
2022/11/30 20:01:22;;;;;;;18.60;9.90;;;7.70;1.00;;;;;;5069706;28;20430;-69
2022/11/30 20:03:49;;;;;;;15.37;9.90;;;7.70;1.00;;;;;;5070326;28;20450;-69
2022/11/30 20:06:15;;;;;;;27.63;15.07;;;7.60;1.00;;;;;;5071311;28;20785;-70
2022/11/30 20:08:41;;;;;;;32.73;16.97;;;7.60;1.00;;;;;;5074181;28;20427;-70
2022/11/30 20:11:07;;;;;;;19.07;11.07;;;7.60;1.00;;;;;;5066759;28;20846;-69
2022/11/30 20:13:33;;;;;;;17.80;11.80;;;7.50;1.00;;;;;;5062662;28;20294;-69
2022/11/30 20:16:03;;;;;;;17.77;10.20;;;7.50;1.00;;;;;;5071010;28;20501;-69
2022/11/30 20:18:29;;;;;;;15.93;9.23;;;7.50;1.00;;;;;;5062412;28;20187;-69
2022/11/30 20:20:54;;;;;;;16.97;10.47;;;7.60;1.00;;;;;;5067617;28;20446;-70
2022/11/30 20:23:20;;;;;;;13.43;8.10;;;7.50;1.00;;;;;;5071776;28;20208;-69
2022/11/30 20:25:45;;;;;;;14.40;10.03;;;7.40;1.00;;;;;;5061094;28;20267;-69
2022/11/30 20:28:11;;;;;;;22.43;14.00;;;7.50;1.00;;;;;;5071809;28;20169;-69
2022/11/30 20:30:36;;;;;;;16.53;11.00;;;7.50;1.00;;;;;;5064373;28;20250;-69
2022/11/30 20:33:02;;;;;;;15.87;10.53;;;6.10;1.00;;;;;;5062772;28;20690;-69
2022/11/30 20:35:27;;;;;;;16.43;9.53;;;7.50;1.00;;;;;;5060922;28;20173;-70
2022/11/30 20:37:53;;;;;;;12.23;8.13;;;7.50;1.00;;;;;;5066335;28;20185;-70
2022/11/30 20:40:18;;;;;;;18.23;11.13;;;7.60;1.00;;;;;;5063374;28;20207;-70
2022/11/30 20:42:44;;;;;;;21.07;12.77;;;7.60;1.00;;;;;;5067776;28;20223;-70
2022/11/30 20:45:09;;;;;;;16.97;10.70;;;7.60;1.00;;;;;;5060211;28;20169;-69